Date,TemperatureHighF,TemperatureAvgF,TemperatureLowF,DewpointHighF,DewpointAvgF,DewpointLowF,HumidityHigh,HumidityAvg,HumidityLow,PressureMaxIn,PressureMinIn,WindSpeedMaxMPH,WindSpeedAvgMPH,GustSpeedMaxMPH,PrecipitationSumIn
2013-1-1,29,18,12,16,12,8,86,78,60,0.00,40.00,3,2,7,0.00
2013-1-2,30,16,7,15,9,3,86,77,54,0.00,40.00,2,1,5,0.00
2013-1-3,30,14,5,13,7,1,84,76,50,0.00,40.00,3,1,7,0.00
2013-1-4,24,12,6,14,7,2,84,80,65,0.00,40.00,2,1,5,0.00
2013-1-6,36,21,14,19,14,10,86,75,50,0.00,40.00,5,2,10,0.00
2013-1-7,37,23,10,23,16,6,85,75,54,0.00,40.00,2,1,5,0.00
2013-1-8,48,30,17,26,21,14,87,71,42,0.00,40.00,5,2,7,0.00
2013-1-9,55,35,19,29,23,15,87,67,36,0.00,40.00,16,5,28,0.00
2013-1-10,34,29,23,18,14,9,63,54,34,0.00,40.00,12,7,20,0.00
2013-1-11,32,23,8,21,13,4,87,69,44,0.00,40.00,9,5,14,0.00
2013-1-12,25,11,3,12,5,-2,83,75,50,0.00,40.00,4,1,8,0.00
2013-1-13,23,10,0,8,2,-5,82,72,47,0.00,40.00,4,2,9,0.00
2013-1-14,25,11,-1,7,2,-6,81,69,43,0.00,40.00,4,2,8,0.00
2013-1-15,32,20,6,10,7,1,78,59,36,0.00,40.00,4,1,6,0.00
2013-1-16,38,16,6,13,7,1,80,70,35,0.00,40.00,2,1,5,0.00
2013-1-17,38,18,5,15,8,0,80,67,38,0.00,40.00,3,1,6,0.00
2013-1-18,35,20,5,15,10,2,84,66,43,0.00,40.00,4,2,7,0.00
2013-1-19,37,20,6,15,10,3,85,67,40,0.00,40.00,4,2,7,0.00
2013-1-20,40,22,5,15,11,1,84,64,36,0.00,40.00,2,1,7,0.00
2013-1-21,41,22,7,16,11,3,82,63,34,0.00,40.00,4,2,6,0.00
2013-1-22,43,24,9,16,11,4,81,61,30,0.00,40.00,4,1,7,0.00
2013-1-23,34,26,19,19,16,12,72,62,52,0.00,40.00,2,1,4,0.00
2013-1-27,38,38,38,19,19,19,45,45,45,0.00,40.00,9,9,14,0.00
2013-1-28,40,40,40,18,18,18,41,41,41,0.00,40.00,6,6,11,0.00
2013-1-29,43,43,43,27,27,27,53,53,53,0.00,40.00,3,3,4,0.00
2013-1-31,37,37,37,28,28,28,70,70,70,0.00,40.00,2,2,4,0.00